Time;durP1;ratioP1;P1;durP2;ratioP2;P2;SDS_P1;SDS_P2;PMS_P1;PMS_P2;Temp;Humidity;BMP_temperature;BMP_pressure;BME280_temperature;BME280_humidity;BME280_pressure;Samples;Min_cycle;Max_cycle;Signal;HPM_P1;HPM_P2
2023/09/10 00:00:56;;;;;;;14.07;9.73;;;21.40;99.90;;;;;;5054684;28;20080;-62
2023/09/10 00:03:22;;;;;;;12.93;9.90;;;21.40;99.90;;;;;;5053676;28;20037;-63
2023/09/10 00:05:47;;;;;;;12.30;9.50;;;21.30;99.90;;;;;;5053853;28;20029;-62
2023/09/10 00:08:13;;;;;;;12.43;10.23;;;21.20;99.90;;;;;;5054155;28;20368;-63
2023/09/10 00:10:39;;;;;;;12.65;10.38;;;21.20;99.90;;;;;;5054180;28;20537;-62
2023/09/10 00:13:05;;;;;;;14.48;10.55;;;21.20;99.90;;;;;;5053205;28;20079;-63
2023/09/10 00:15:30;;;;;;;11.98;10.73;;;21.20;99.90;;;;;;5036119;28;20021;-62
2023/09/10 00:17:56;;;;;;;16.17;10.70;;;21.10;99.90;;;;;;5053468;28;20048;-64
2023/09/10 00:20:21;;;;;;;14.60;9.90;;;21.10;99.90;;;;;;5053491;28;20071;-63
2023/09/10 00:22:47;;;;;;;15.40;10.80;;;21.10;99.90;;;;;;5053477;28;20501;-62
2023/09/10 00:25:13;;;;;;;12.35;10.10;;;21.00;99.90;;;;;;5053267;28;20021;-62
2023/09/10 00:27:38;;;;;;;17.42;10.10;;;21.00;99.90;;;;;;5052985;28;20029;-63
2023/09/10 00:30:04;;;;;;;15.10;10.48;;;21.00;99.90;;;;;;5053499;28;20024;-63
2023/09/10 00:32:30;;;;;;;;;;;21.00;99.90;;;;;;5053628;28;20033;-62
2023/09/10 00:34:55;;;;;;;14.48;9.70;;;20.90;99.90;;;;;;5053164;28;19951;-63
2023/09/10 00:37:21;;;;;;;14.35;9.93;;;20.90;99.90;;;;;;5053141;28;20086;-63
2023/09/10 00:39:47;;;;;;;16.42;10.35;;;20.90;99.90;;;;;;5053189;28;20029;-63
2023/09/10 00:42:12;;;;;;;12.52;9.68;;;20.80;99.90;;;;;;5052919;28;20028;-64
2023/09/10 00:44:38;;;;;;;11.40;10.15;;;20.90;99.90;;;;;;5052889;28;20025;-64
2023/09/10 00:47:05;;;;;;;12.20;9.88;;;20.80;99.90;;;;;;5052946;28;20021;-63
2023/09/10 00:49:31;;;;;;;15.55;10.45;;;20.80;99.90;;;;;;5053048;28;20476;-62
2023/09/10 00:51:58;;;;;;;10.98;9.85;;;20.80;99.90;;;;;;5053155;28;20029;-62
2023/09/10 00:54:24;;;;;;;14.68;10.50;;;20.80;99.90;;;;;;5052965;28;20123;-63
2023/09/10 00:56:50;;;;;;;;;;;20.80;99.90;;;;;;5034564;28;20028;-63
2023/09/10 00:59:16;;;;;;;15.35;10.45;;;20.70;99.90;;;;;;5052914;28;19905;-62
2023/09/10 01:01:42;;;;;;;12.57;10.32;;;20.60;99.90;;;;;;5036391;28;20116;-62
2023/09/10 01:04:07;;;;;;;14.00;10.80;;;20.50;99.90;;;;;;5052817;28;20033;-63
2023/09/10 01:06:34;;;;;;;14.70;10.23;;;20.50;99.90;;;;;;5053459;28;20025;-63
2023/09/10 01:08:59;;;;;;;14.55;10.40;;;20.40;99.90;;;;;;5054298;28;20044;-62
2023/09/10 01:11:49;;;;;;;12.48;10.68;;;20.40;99.90;;;;;;5053706;28;20471;-62
2023/09/10 01:14:27;;;;;;;16.38;10.55;;;20.50;99.90;;;;;;5053115;28;20033;-63
2023/09/10 01:17:22;;;;;;;17.40;10.95;;;20.40;99.90;;;;;;5052865;28;20543;-62
2023/09/10 01:19:50;;;;;;;12.32;10.35;;;20.40;99.90;;;;;;5053116;28;20439;-63
2023/09/10 01:22:33;;;;;;;12.75;9.57;;;20.40;99.90;;;;;;5053073;28;20029;-63
2023/09/10 01:25:00;;;;;;;13.27;10.70;;;20.30;99.90;;;;;;5052783;28;20092;-62
2023/09/10 01:27:25;;;;;;;12.93;10.07;;;20.40;99.90;;;;;;5052255;28;20021;-62
2023/09/10 01:29:51;;;;;;;14.45;10.45;;;20.40;99.90;;;;;;5052741;28;20096;-62
2023/09/10 01:32:43;;;;;;;14.38;10.98;;;20.30;99.90;;;;;;5052798;28;20392;-64
2023/09/10 01:35:19;;;;;;;13.25;10.25;;;20.30;99.90;;;;;;5053387;28;20025;-62
2023/09/10 01:37:53;;;;;;;17.07;10.13;;;20.30;99.90;;;;;;5052661;28;20021;-63
2023/09/10 01:40:22;;;;;;;13.57;10.35;;;20.20;99.90;;;;;;5052696;28;20174;-63
2023/09/10 01:42:49;;;;;;;13.18;10.40;;;20.20;99.90;;;;;;5052390;28;20036;-63
2023/09/10 01:45:15;;;;;;;13.27;10.80;;;20.20;99.90;;;;;;5052645;28;20017;-62
2023/09/10 01:47:40;;;;;;;;;;;20.20;99.90;;;;;;5033089;28;20022;-63
2023/09/10 01:50:07;;;;;;;15.43;10.75;;;20.20;99.90;;;;;;5033559;28;20322;-63
2023/09/10 01:52:32;;;;;;;;;;;20.10;99.90;;;;;;5033800;28;20029;-63
2023/09/10 01:54:58;;;;;;;13.98;10.43;;;20.10;99.90;;;;;;5033277;28;19920;-63
2023/09/10 01:57:23;;;;;;;23.23;10.88;;;20.10;99.90;;;;;;5015170;28;20025;-63
2023/09/10 01:59:49;;;;;;;14.75;11.15;;;20.00;99.90;;;;;;5015196;28;20033;-63
2023/09/10 02:02:15;;;;;;;14.95;9.70;;;20.00;99.90;;;;;;5033086;28;20026;-63
2023/09/10 02:04:40;;;;;;;;;;;19.90;99.90;;;;;;5032746;28;20029;-63
2023/09/10 02:07:06;;;;;;;15.10;9.80;;;19.90;99.90;;;;;;5032376;28;19905;-63
2023/09/10 02:09:31;;;;;;;14.70;9.85;;;19.90;99.90;;;;;;5036135;28;20033;-63
2023/09/10 02:11:57;;;;;;;15.93;10.98;;;19.80;99.90;;;;;;5035880;28;20037;-63
2023/09/10 02:14:23;;;;;;;13.20;10.32;;;19.80;99.90;;;;;;5035802;28;20025;-63
2023/09/10 02:16:49;;;;;;;15.30;10.18;;;19.80;99.90;;;;;;5049142;28;20060;-63
2023/09/10 02:19:14;;;;;;;14.82;10.77;;;19.70;99.90;;;;;;5059188;28;20032;-63
2023/09/10 02:21:40;;;;;;;16.45;10.50;;;19.70;99.90;;;;;;5058128;28;20061;-63
2023/09/10 02:24:06;;;;;;;13.07;9.98;;;19.70;99.90;;;;;;5055734;28;20468;-63
2023/09/10 02:26:31;;;;;;;11.18;9.98;;;19.70;99.90;;;;;;5055513;28;20025;-63
2023/09/10 02:28:56;;;;;;;13.27;10.60;;;19.70;99.90;;;;;;5054975;28;20032;-63
2023/09/10 02:31:22;;;;;;;14.05;10.18;;;19.70;99.90;;;;;;5055435;28;20036;-63
2023/09/10 02:33:48;;;;;;;11.48;9.43;;;19.60;99.90;;;;;;5055315;28;20028;-63
2023/09/10 02:36:13;;;;;;;11.15;9.65;;;19.70;99.90;;;;;;5055448;28;20040;-63
2023/09/10 02:38:39;;;;;;;13.23;10.45;;;19.60;99.90;;;;;;5055319;28;20108;-63
2023/09/10 02:41:04;;;;;;;14.45;10.32;;;19.60;99.90;;;;;;5055693;28;20116;-63
2023/09/10 02:43:30;;;;;;;14.85;10.18;;;19.50;99.90;;;;;;5054722;28;20021;-62
2023/09/10 02:45:56;;;;;;;13.27;9.80;;;19.50;99.90;;;;;;5054991;28;20079;-64
2023/09/10 02:48:22;;;;;;;;;;;19.50;99.90;;;;;;5055471;28;20047;-62
2023/09/10 02:50:47;;;;;;;14.15;11.13;;;19.40;99.90;;;;;;5054992;28;20359;-62
2023/09/10 02:53:13;;;;;;;15.52;10.80;;;19.40;99.90;;;;;;5055046;28;20036;-62
2023/09/10 02:55:38;;;;;;;12.55;9.82;;;19.40;99.90;;;;;;5055196;28;20492;-63
2023/09/10 02:58:04;;;;;;;11.98;10.32;;;19.40;99.90;;;;;;5036788;28;20550;-62
2023/09/10 03:00:30;;;;;;;15.13;9.90;;;19.40;99.90;;;;;;5055426;28;20029;-62
2023/09/10 03:02:56;;;;;;;15.25;10.20;;;19.40;99.90;;;;;;5055425;28;20036;-63
2023/09/10 03:05:22;;;;;;;12.75;10.15;;;19.40;99.90;;;;;;5054855;28;20083;-62
2023/09/10 03:07:50;;;;;;;;;;;19.40;99.90;;;;;;5055467;28;20029;-63
2023/09/10 03:10:15;;;;;;;13.02;9.75;;;19.40;99.90;;;;;;5054682;28;19952;-62
2023/09/10 03:12:41;;;;;;;11.88;9.70;;;19.40;99.90;;;;;;5054443;28;20507;-62
2023/09/10 03:15:07;;;;;;;13.02;9.98;;;19.40;99.90;;;;;;5054604;28;20046;-63
2023/09/10 03:17:32;;;;;;;10.48;9.30;;;19.40;99.90;;;;;;5054663;28;20111;-62
2023/09/10 03:19:58;;;;;;;12.40;10.20;;;19.40;99.90;;;;;;5054382;28;20463;-62
2023/09/10 03:22:23;;;;;;;14.00;10.38;;;19.40;99.90;;;;;;5054687;28;20036;-62
2023/09/10 03:24:49;;;;;;;14.05;9.63;;;19.30;99.90;;;;;;5054314;28;20025;-62
2023/09/10 03:27:14;;;;;;;14.60;9.85;;;19.30;99.90;;;;;;5054578;28;20151;-63
2023/09/10 03:29:42;;;;;;;12.90;10.38;;;19.30;99.90;;;;;;5054380;28;20025;-63
2023/09/10 03:32:07;;;;;;;12.20;10.05;;;19.20;99.90;;;;;;5054814;28;20466;-63
2023/09/10 03:34:33;;;;;;;11.73;9.55;;;19.20;99.90;;;;;;5054861;28;20110;-63
2023/09/10 03:36:59;;;;;;;13.50;10.30;;;19.20;99.90;;;;;;5054122;28;20454;-63
2023/09/10 03:39:25;;;;;;;13.82;10.00;;;19.20;99.90;;;;;;5054066;28;20032;-63
2023/09/10 03:41:52;;;;;;;13.70;10.10;;;19.10;99.90;;;;;;5054127;28;20032;-63
2023/09/10 03:44:18;;;;;;;12.30;10.40;;;19.10;99.90;;;;;;5053933;28;20052;-63
2023/09/10 03:46:43;;;;;;;;;;;19.10;99.90;;;;;;5054489;28;20021;-63
2023/09/10 03:49:09;;;;;;;14.65;10.45;;;19.00;99.90;;;;;;5053920;28;19904;-63
2023/09/10 03:51:34;;;;;;;18.35;10.13;;;19.00;99.90;;;;;;5053910;28;20074;-63
2023/09/10 03:54:00;;;;;;;12.93;9.63;;;19.10;99.90;;;;;;5053647;28;20041;-62
2023/09/10 03:56:25;;;;;;;12.65;10.25;;;19.00;99.90;;;;;;5053849;28;20111;-63
2023/09/10 03:58:51;;;;;;;17.00;10.77;;;19.00;99.90;;;;;;5053536;28;20025;-63
2023/09/10 04:01:16;;;;;;;12.05;10.30;;;18.90;99.90;;;;;;5053927;28;20552;-63
2023/09/10 04:03:42;;;;;;;14.85;10.63;;;18.90;99.90;;;;;;5053496;28;20039;-63
2023/09/10 04:06:08;;;;;;;16.35;9.85;;;18.90;99.90;;;;;;5035748;28;20159;-63
2023/09/10 04:08:33;;;;;;;11.27;9.95;;;18.80;99.90;;;;;;5053695;28;20028;-63
2023/09/10 04:10:59;;;;;;;13.75;10.63;;;18.80;99.90;;;;;;5053904;28;20472;-63
2023/09/10 04:13:25;;;;;;;12.93;10.40;;;18.80;99.90;;;;;;5053532;28;20028;-63
2023/09/10 04:15:51;;;;;;;12.15;9.77;;;18.80;99.90;;;;;;5053522;28;20032;-63
2023/09/10 04:18:16;;;;;;;11.90;10.05;;;18.80;99.90;;;;;;5053455;28;20028;-63
2023/09/10 04:20:42;;;;;;;13.18;10.95;;;18.80;99.90;;;;;;5053898;28;20040;-61
2023/09/10 04:23:07;;;;;;;12.88;10.43;;;18.70;99.90;;;;;;5053186;28;20395;-59
2023/09/10 04:25:33;;;;;;;18.20;10.80;;;18.70;99.90;;;;;;5053866;28;20087;-62
2023/09/10 04:27:58;;;;;;;13.02;10.27;;;18.70;99.90;;;;;;5053414;28;20079;-60
2023/09/10 04:30:24;;;;;;;12.43;10.45;;;18.70;99.90;;;;;;5034645;28;20079;-61
2023/09/10 04:32:49;;;;;;;16.23;11.40;;;18.70;99.90;;;;;;5053282;28;20029;-61
2023/09/10 04:35:15;;;;;;;13.32;11.23;;;18.80;99.90;;;;;;5053980;28;20064;-62
2023/09/10 04:37:40;;;;;;;13.20;11.80;;;18.70;99.90;;;;;;5053882;28;20036;-62
2023/09/10 04:40:07;;;;;;;15.35;12.25;;;18.70;99.90;;;;;;5053992;28;20083;-62
2023/09/10 04:42:36;;;;;;;14.18;11.00;;;18.70;99.90;;;;;;5052721;28;20029;-62
2023/09/10 04:45:03;;;;;;;16.83;11.52;;;18.60;99.90;;;;;;5053184;28;20025;-59
2023/09/10 04:47:29;;;;;;;15.40;12.00;;;18.60;99.90;;;;;;5052992;28;20013;-59
2023/09/10 04:49:54;;;;;;;12.80;11.30;;;18.60;99.90;;;;;;5053229;28;20092;-63
2023/09/10 04:52:20;;;;;;;14.25;11.27;;;18.50;99.90;;;;;;5053580;28;20399;-61
2023/09/10 04:54:45;;;;;;;14.48;11.52;;;18.50;99.90;;;;;;5052994;28;20037;-60
2023/09/10 04:57:11;;;;;;;14.13;12.13;;;18.40;99.90;;;;;;5052118;28;20041;-61
2023/09/10 04:59:37;;;;;;;16.98;11.68;;;18.30;99.90;;;;;;5053508;28;20036;-61
2023/09/10 05:02:04;;;;;;;17.48;12.93;;;18.20;99.90;;;;;;5053029;28;20025;-62
2023/09/10 05:04:30;;;;;;;17.00;13.02;;;18.20;99.90;;;;;;5052771;28;20017;-60
2023/09/10 05:06:55;;;;;;;17.25;12.35;;;18.20;99.90;;;;;;5052789;28;20075;-62
2023/09/10 05:09:21;;;;;;;16.23;12.55;;;18.30;99.90;;;;;;5052674;28;20051;-61
2023/09/10 05:11:46;;;;;;;19.20;12.38;;;18.30;99.90;;;;;;5044047;28;20483;-59
2023/09/10 05:14:12;;;;;;;17.40;12.30;;;18.30;99.90;;;;;;5041612;28;20061;-61
2023/09/10 05:16:37;;;;;;;15.35;11.93;;;18.20;99.90;;;;;;5042989;28;20480;-61
2023/09/10 05:19:03;;;;;;;17.98;13.45;;;18.20;99.90;;;;;;5043111;28;20026;-62
2023/09/10 05:21:28;;;;;;;18.15;12.77;;;18.20;99.90;;;;;;5043250;28;20024;-61
2023/09/10 05:23:54;;;;;;;14.85;12.95;;;18.20;99.90;;;;;;5045687;28;20030;-60
2023/09/10 05:26:21;;;;;;;13.23;11.82;;;18.10;99.90;;;;;;5048627;28;20023;-59
2023/09/10 05:28:46;;;;;;;16.73;12.10;;;18.10;99.90;;;;;;5029351;28;20083;-61
2023/09/10 05:31:12;;;;;;;14.15;11.27;;;18.10;99.90;;;;;;5052786;28;20037;-61
2023/09/10 05:33:38;;;;;;;16.23;12.45;;;18.10;99.90;;;;;;5035693;28;20480;-61
2023/09/10 05:36:04;;;;;;;13.43;11.48;;;18.10;99.90;;;;;;5053100;28;20103;-61
2023/09/10 05:38:29;;;;;;;13.40;11.25;;;18.10;99.90;;;;;;5053175;28;20039;-60
2023/09/10 05:41:03;;;;;;;13.10;11.38;;;18.10;99.90;;;;;;5052788;28;20448;-61
2023/09/10 05:43:29;;;;;;;15.85;11.85;;;18.20;99.90;;;;;;5037824;28;20025;-60
2023/09/10 05:45:56;;;;;;;15.75;11.82;;;18.20;99.90;;;;;;5056379;28;20025;-61
2023/09/10 05:48:22;;;;;;;;;;;18.30;99.90;;;;;;5056688;28;20086;-61
2023/09/10 05:50:47;;;;;;;13.10;10.85;;;18.30;99.90;;;;;;5056212;28;19930;-63
2023/09/10 05:53:13;;;;;;;16.35;11.85;;;18.30;99.90;;;;;;5056131;28;20120;-61
2023/09/10 05:55:42;;;;;;;13.38;11.60;;;18.30;99.90;;;;;;5056205;28;20044;-60
2023/09/10 05:58:08;;;;;;;16.65;11.95;;;18.40;99.90;;;;;;5055005;28;20040;-60
2023/09/10 06:00:34;;;;;;;;;;;18.40;99.90;;;;;;5056174;28;20029;-59
2023/09/10 06:02:59;;;;;;;14.32;10.93;;;18.40;99.90;;;;;;5055824;28;19909;-61
2023/09/10 06:05:25;;;;;;;14.85;10.57;;;18.40;99.90;;;;;;5055976;28;20517;-62
2023/09/10 06:07:50;;;;;;;16.02;11.07;;;18.40;99.90;;;;;;5055832;28;20053;-60
2023/09/10 06:10:16;;;;;;;15.15;11.13;;;18.50;99.90;;;;;;5055758;28;20032;-61
2023/09/10 06:12:43;;;;;;;12.13;10.43;;;18.60;99.90;;;;;;5050102;28;20646;-63
2023/09/10 06:15:08;;;;;;;14.07;10.68;;;18.60;99.90;;;;;;5046392;28;20052;-61
2023/09/10 06:17:35;;;;;;;18.33;11.25;;;18.70;99.90;;;;;;5044052;28;20061;-60
2023/09/10 06:20:02;;;;;;;13.50;10.57;;;18.80;99.90;;;;;;5048736;28;20044;-61
2023/09/10 06:22:28;;;;;;;12.85;10.80;;;18.80;99.90;;;;;;5051683;28;20021;-60
2023/09/10 06:24:53;;;;;;;13.27;10.85;;;18.80;99.90;;;;;;5042785;28;20431;-62
2023/09/10 06:27:19;;;;;;;13.90;11.00;;;18.90;99.90;;;;;;5048511;28;20025;-61
2023/09/10 06:29:45;;;;;;;14.82;11.68;;;19.00;99.90;;;;;;5044268;28;20021;-60
2023/09/10 06:32:10;;;;;;;13.68;10.60;;;19.00;99.90;;;;;;5048967;28;20017;-63
2023/09/10 06:34:36;;;;;;;16.50;11.40;;;19.10;99.90;;;;;;5052551;28;20029;-64
2023/09/10 06:37:02;;;;;;;15.00;10.38;;;19.20;99.90;;;;;;5047301;28;20017;-66
2023/09/10 06:39:28;;;;;;;14.68;10.93;;;19.30;99.90;;;;;;5057394;28;20539;-67
2023/09/10 06:41:54;;;;;;;13.18;10.27;;;19.30;99.90;;;;;;5039028;28;20112;-63
2023/09/10 06:44:20;;;;;;;;;;;19.40;99.90;;;;;;5050639;28;21937;-65
2023/09/10 06:46:46;;;;;;;12.88;9.68;;;19.60;99.90;;;;;;5050755;28;19917;-66
2023/09/10 06:49:11;;;;;;;14.73;10.88;;;19.70;99.90;;;;;;5052712;28;20074;-65
2023/09/10 06:51:37;;;;;;;13.77;10.40;;;19.70;99.90;;;;;;5051572;28;20026;-65
2023/09/10 06:54:03;;;;;;;12.05;10.10;;;19.80;99.90;;;;;;5054599;28;20033;-67
2023/09/10 06:56:31;;;;;;;12.45;9.60;;;19.80;99.90;;;;;;5053901;28;20016;-62
2023/09/10 06:58:57;;;;;;;10.80;9.70;;;20.00;99.90;;;;;;5034261;28;20100;-56
2023/09/10 07:01:22;;;;;;;12.27;10.15;;;20.10;99.90;;;;;;5044183;28;20427;-64
2023/09/10 07:03:57;;;;;;;13.40;10.55;;;20.30;99.90;;;;;;5049248;28;20037;-63
2023/09/10 07:06:23;;;;;;;12.88;9.88;;;20.30;99.90;;;;;;5054984;28;20072;-63
2023/09/10 07:08:49;;;;;;;12.77;9.82;;;20.30;99.90;;;;;;5055375;28;20029;-64
2023/09/10 07:11:14;;;;;;;11.77;9.82;;;20.30;99.90;;;;;;5055442;28;20116;-60
2023/09/10 07:13:40;;;;;;;14.25;10.07;;;20.40;99.90;;;;;;5054599;28;20033;-63
2023/09/10 07:16:06;;;;;;;11.02;9.25;;;20.50;99.90;;;;;;5054869;28;20028;-61
2023/09/10 07:18:33;;;;;;;11.57;10.07;;;20.60;99.90;;;;;;5055084;28;20024;-62
2023/09/10 07:21:03;;;;;;;12.35;10.07;;;20.60;99.90;;;;;;5036553;28;20155;-62
2023/09/10 07:23:28;;;;;;;12.70;10.13;;;20.70;99.90;;;;;;5054377;28;20033;-63
2023/09/10 07:25:55;;;;;;;17.27;13.52;;;20.90;99.90;;;;;;5054645;28;20028;-61
2023/09/10 07:28:21;;;;;;;13.57;10.27;;;21.00;99.90;;;;;;5054292;28;20111;-57
2023/09/10 07:30:46;;;;;;;12.27;9.98;;;21.00;99.90;;;;;;5054678;28;20486;-58
2023/09/10 07:33:12;;;;;;;12.02;9.20;;;21.00;99.90;;;;;;5054170;28;20108;-59
2023/09/10 07:35:38;;;;;;;12.07;9.57;;;21.00;99.90;;;;;;5055056;28;20039;-59
2023/09/10 07:38:04;;;;;;;11.73;9.45;;;20.90;99.90;;;;;;5033139;28;20032;-59
2023/09/10 07:40:29;;;;;;;14.65;9.25;;;21.00;99.90;;;;;;5051483;28;20025;-60
2023/09/10 07:42:58;;;;;;;12.82;9.05;;;21.10;99.90;;;;;;5049050;28;20025;-59
2023/09/10 07:45:24;;;;;;;12.48;9.40;;;21.20;99.90;;;;;;5048811;28;20075;-59
2023/09/10 07:47:49;;;;;;;11.45;9.52;;;21.20;99.90;;;;;;5044304;28;20100;-58
2023/09/10 07:50:15;;;;;;;14.38;9.55;;;21.30;99.90;;;;;;5041877;28;20030;-58
2023/09/10 07:52:41;;;;;;;11.15;9.00;;;21.30;99.90;;;;;;5033978;28;20039;-56
2023/09/10 07:55:06;;;;;;;13.23;10.40;;;21.40;99.90;;;;;;5033762;28;20526;-55
2023/09/10 07:57:32;;;;;;;14.85;10.02;;;21.50;99.90;;;;;;5047277;28;20025;-57
2023/09/10 07:59:57;;;;;;;13.43;9.15;;;21.50;99.90;;;;;;5053842;28;20040;-56
2023/09/10 08:02:26;;;;;;;16.83;10.80;;;21.60;99.90;;;;;;5053567;28;20386;-58
2023/09/10 08:04:52;;;;;;;13.55;10.43;;;21.70;99.90;;;;;;5056685;28;20369;-57
2023/09/10 08:07:18;;;;;;;11.40;9.85;;;21.90;99.90;;;;;;5059628;28;20028;-59
2023/09/10 08:09:43;;;;;;;11.40;9.70;;;22.00;99.90;;;;;;5049677;28;20387;-64
2023/09/10 08:12:09;;;;;;;12.55;9.35;;;22.10;99.90;;;;;;5053319;28;20024;-66
2023/09/10 08:14:35;;;;;;;14.48;10.13;;;22.10;99.90;;;;;;5035595;28;20471;-61
2023/09/10 08:17:01;;;;;;;13.32;9.43;;;22.20;99.90;;;;;;5053949;28;20078;-62
2023/09/10 08:19:27;;;;;;;10.60;9.05;;;22.30;99.90;;;;;;5053557;28;20059;-62
2023/09/10 08:21:53;;;;;;;12.40;9.48;;;22.40;99.90;;;;;;5053922;28;20448;-63
2023/09/10 08:24:18;;;;;;;13.10;9.68;;;22.50;99.90;;;;;;5053592;28;20032;-64
2023/09/10 08:26:43;;;;;;;;;;;22.60;99.90;;;;;;5054978;28;20495;-62
2023/09/10 08:29:09;;;;;;;12.98;9.40;;;22.70;99.90;;;;;;5054213;28;19950;-63
2023/09/10 08:31:34;;;;;;;13.85;9.30;;;22.70;99.90;;;;;;5053753;28;20048;-62
2023/09/10 08:34:00;;;;;;;;;;;23.00;99.90;;;;;;5053980;28;20037;-62
2023/09/10 08:36:27;;;;;;;11.70;10.50;;;23.00;99.90;;;;;;5053219;28;20375;-62
2023/09/10 08:38:53;;;;;;;10.95;9.23;;;23.10;99.90;;;;;;5053235;28;20111;-64
2023/09/10 08:41:40;;;;;;;14.93;9.70;;;23.20;99.90;;;;;;5053725;28;20035;-62
2023/09/10 08:44:10;;;;;;;9.80;8.35;;;23.50;99.90;;;;;;5035564;28;20021;-61
2023/09/10 08:46:37;;;;;;;11.45;8.05;;;24.60;99.90;;;;;;5053691;28;20025;-64
2023/09/10 08:49:04;;;;;;;20.48;15.25;;;27.30;99.90;;;;;;5052760;28;20035;-63
2023/09/10 08:51:32;;;;;;;13.32;9.07;;;30.50;98.40;;;;;;5053308;28;20078;-63
2023/09/10 08:54:00;;;;;;;10.77;7.93;;;33.20;94.10;;;;;;5053008;28;20117;-64
2023/09/10 08:56:27;;;;;;;9.00;7.13;;;35.80;90.70;;;;;;5053359;28;20041;-64
2023/09/10 08:58:52;;;;;;;9.02;7.15;;;36.40;84.60;;;;;;5052595;28;20025;-64
2023/09/10 09:01:19;;;;;;;10.25;6.60;;;37.70;82.20;;;;;;5052758;28;20046;-64
2023/09/10 09:03:46;;;;;;;7.72;6.85;;;39.10;78.20;;;;;;5034779;28;20021;-64
2023/09/10 09:06:12;;;;;;;8.35;6.65;;;40.40;75.10;;;;;;5052807;28;20160;-63
2023/09/10 09:08:40;;;;;;;7.53;6.55;;;41.50;71.70;;;;;;5053050;28;20056;-63
2023/09/10 09:11:08;;;;;;;7.72;6.40;;;42.10;67.70;;;;;;5052685;28;20025;-64
2023/09/10 09:13:40;;;;;;;7.00;6.30;;;42.20;67.20;;;;;;5052385;28;20025;-62
2023/09/10 09:16:07;;;;;;;7.57;6.60;;;41.80;65.50;;;;;;5052690;28;20025;-63
2023/09/10 09:18:35;;;;;;;7.35;6.65;;;42.10;65.90;;;;;;5056757;28;20033;-62
2023/09/10 09:21:11;;;;;;;6.82;6.13;;;42.20;64.70;;;;;;5057044;28;20028;-63
2023/09/10 09:23:51;;;;;;;8.95;6.15;;;43.00;63.80;;;;;;5056636;28;20056;-62
2023/09/10 09:26:18;;;;;;;8.52;6.32;;;42.90;63.10;;;;;;5056641;28;20021;-62
2023/09/10 09:28:44;;;;;;;8.35;6.35;;;42.10;63.70;;;;;;5056328;28;20039;-63
2023/09/10 09:31:11;;;;;;;8.27;6.20;;;42.50;64.70;;;;;;5056811;28;20020;-63
2023/09/10 09:33:37;;;;;;;8.73;5.70;;;43.00;63.60;;;;;;5056355;28;20029;-61
2023/09/10 09:36:07;;;;;;;7.50;5.75;;;43.60;62.80;;;;;;5056534;28;20025;-63
2023/09/10 09:38:34;;;;;;;6.30;5.68;;;43.70;62.00;;;;;;5056688;28;20075;-63
2023/09/10 09:41:03;;;;;;;6.28;5.68;;;43.40;60.90;;;;;;5056764;28;20087;-62
2023/09/10 09:43:31;;;;;;;9.38;8.60;;;43.60;60.80;;;;;;5056405;28;20392;-57
2023/09/10 09:45:57;;;;;;;6.80;6.20;;;43.60;60.60;;;;;;5056573;28;20079;-59
2023/09/10 09:48:23;;;;;;;6.28;5.65;;;43.80;60.40;;;;;;5056972;28;20033;-58
2023/09/10 09:50:49;;;;;;;6.63;5.55;;;44.40;60.10;;;;;;5056543;28;20032;-60
2023/09/10 09:53:16;;;;;;;7.68;5.32;;;43.90;59.70;;;;;;5056523;28;20028;-56
2023/09/10 09:55:44;;;;;;;6.13;5.63;;;43.40;59.70;;;;;;5056083;28;20057;-58
2023/09/10 09:58:10;;;;;;;8.02;5.45;;;43.30;59.70;;;;;;5056476;28;20029;-54
2023/09/10 10:00:37;;;;;;;7.18;5.50;;;43.50;59.40;;;;;;5056018;28;20391;-54
2023/09/10 10:03:04;;;;;;;5.60;5.03;;;43.10;59.70;;;;;;5056346;28;20031;-58
2023/09/10 10:05:30;;;;;;;5.88;5.38;;;42.20;59.40;;;;;;5055585;28;20395;-58
2023/09/10 10:07:56;;;;;;;6.05;5.53;;;41.70;60.40;;;;;;5064299;28;20082;-56
2023/09/10 10:10:21;;;;;;;6.50;5.70;;;41.40;61.20;;;;;;5056945;28;20021;-58
2023/09/10 10:12:50;;;;;;;6.35;5.30;;;41.80;60.90;;;;;;5051431;28;20025;-58
2023/09/10 10:15:16;;;;;;;8.48;5.68;;;41.10;61.60;;;;;;5043525;28;20026;-57
2023/09/10 10:17:43;;;;;;;7.30;5.82;;;41.90;61.10;;;;;;5035836;28;20032;-55
2023/09/10 10:20:09;;;;;;;6.30;5.68;;;43.00;60.20;;;;;;5036341;28;20025;-60
2023/09/10 10:22:35;;;;;;;7.47;5.25;;;43.70;59.20;;;;;;5035674;28;20388;-60
2023/09/10 10:25:04;;;;;;;5.95;5.40;;;43.60;59.20;;;;;;5017948;28;20049;-59
2023/09/10 10:27:32;;;;;;;8.95;6.00;;;43.50;59.10;;;;;;5047551;28;20021;-60
2023/09/10 10:29:58;;;;;;;9.77;4.95;;;43.30;58.90;;;;;;5036675;28;20388;-60
2023/09/10 10:32:37;;;;;;;7.10;5.57;;;43.70;59.00;;;;;;5055737;28;20029;-58
2023/09/10 10:35:05;;;;;;;7.22;5.28;;;44.20;58.00;;;;;;5056020;28;20041;-61
2023/09/10 10:38:01;;;;;;;6.72;4.85;;;43.20;58.30;;;;;;5055315;28;20056;-60
2023/09/10 10:40:49;;;;;;;5.72;5.15;;;43.80;57.00;;;;;;5046411;28;20021;-63
2023/09/10 10:43:30;;;;;;;5.60;4.65;;;43.00;56.90;;;;;;5035617;28;20030;-62
2023/09/10 10:45:57;;;;;;;6.38;4.93;;;43.20;57.50;;;;;;5035556;28;20480;-62
2023/09/10 10:48:26;;;;;;;6.45;4.97;;;42.30;57.50;;;;;;5051179;28;20432;-62
2023/09/10 10:50:56;;;;;;;5.07;4.47;;;42.30;57.10;;;;;;5036432;28;20013;-62
2023/09/10 10:53:24;;;;;;;5.53;4.93;;;42.20;57.70;;;;;;5035291;28;20029;-61
2023/09/10 10:55:52;;;;;;;5.38;4.65;;;42.50;57.40;;;;;;5035874;28;20033;-62
2023/09/10 10:58:20;;;;;;;5.15;4.57;;;42.50;57.30;;;;;;5052878;28;20510;-62
2023/09/10 11:00:54;;;;;;;6.85;5.25;;;42.30;57.00;;;;;;5055041;28;20029;-60
2023/09/10 11:03:21;;;;;;;6.03;4.90;;;41.10;57.50;;;;;;5054300;28;20021;-58
2023/09/10 11:06:05;;;;;;;5.97;5.00;;;40.10;58.40;;;;;;5054824;28;20443;-55
2023/09/10 11:08:39;;;;;;;6.65;5.13;;;38.30;59.50;;;;;;5055174;28;20353;-59
2023/09/10 11:11:29;;;;;;;5.00;4.60;;;36.30;61.10;;;;;;5054862;28;20029;-56
2023/09/10 11:14:02;;;;;;;6.95;5.10;;;34.80;63.20;;;;;;5043412;28;20040;-57
2023/09/10 11:16:29;;;;;;;7.75;5.03;;;33.40;65.00;;;;;;5054266;28;20081;-59
2023/09/10 11:18:55;;;;;;;6.78;4.47;;;32.50;66.00;;;;;;5054492;28;20032;-57
2023/09/10 11:21:21;;;;;;;7.57;5.18;;;31.90;66.90;;;;;;5054362;28;20029;-59
2023/09/10 11:23:46;;;;;;;5.82;4.80;;;31.40;68.70;;;;;;5054774;28;20031;-54
2023/09/10 11:26:14;;;;;;;7.20;5.35;;;31.00;69.80;;;;;;5054685;28;20052;-57
2023/09/10 11:28:49;;;;;;;7.57;4.75;;;30.60;70.70;;;;;;5054576;28;20101;-58
2023/09/10 11:31:46;;;;;;;6.32;5.28;;;30.40;70.00;;;;;;5056351;28;20062;-57
2023/09/10 11:34:15;;;;;;;10.52;6.32;;;30.30;69.50;;;;;;5054697;28;20032;-59
2023/09/10 11:37:15;;;;;;;5.68;4.70;;;30.20;69.60;;;;;;5054560;28;20503;-56
2023/09/10 11:39:42;;;;;;;7.72;4.50;;;30.20;68.60;;;;;;5050514;28;20041;-57
2023/09/10 11:42:08;;;;;;;9.30;4.95;;;30.10;68.10;;;;;;5036203;28;20116;-59
2023/09/10 11:44:35;;;;;;;8.68;4.97;;;30.00;68.30;;;;;;5053903;28;20439;-57
2023/09/10 11:47:00;;;;;;;10.63;5.03;;;30.00;69.40;;;;;;5055732;28;20094;-59
2023/09/10 11:49:26;;;;;;;9.07;6.20;;;29.90;69.40;;;;;;5054101;28;20052;-59
2023/09/10 11:51:54;;;;;;;7.63;4.22;;;29.80;69.30;;;;;;5054707;28;20043;-61
2023/09/10 11:54:21;;;;;;;9.30;4.70;;;29.70;69.30;;;;;;5054989;28;20036;-58
2023/09/10 11:56:52;;;;;;;7.03;4.68;;;29.80;70.10;;;;;;5055139;28;20090;-59
2023/09/10 11:59:19;;;;;;;9.93;4.82;;;29.80;68.80;;;;;;5053450;28;20020;-58
2023/09/10 12:01:45;;;;;;;11.25;5.72;;;29.80;68.70;;;;;;5054093;28;20033;-59
2023/09/10 12:04:11;;;;;;;7.40;5.18;;;29.90;68.90;;;;;;5035382;28;20029;-59
2023/09/10 12:06:37;;;;;;;6.38;4.50;;;29.80;68.80;;;;;;5053488;28;20017;-57
2023/09/10 12:09:04;;;;;;;6.65;4.40;;;29.80;69.20;;;;;;5053635;28;20432;-59
2023/09/10 12:11:31;;;;;;;11.65;7.93;;;29.90;68.90;;;;;;5053345;28;20044;-59
2023/09/10 12:13:57;;;;;;;9.20;5.78;;;30.00;68.90;;;;;;5053073;28;20028;-59
2023/09/10 12:16:22;;;;;;;8.13;4.25;;;30.10;68.60;;;;;;5053483;28;20041;-59
2023/09/10 12:18:48;;;;;;;6.30;4.75;;;30.10;68.50;;;;;;5053244;28;20029;-59
2023/09/10 12:21:15;;;;;;;8.60;4.53;;;30.00;69.00;;;;;;5053300;28;20498;-57
2023/09/10 12:23:41;;;;;;;10.85;5.45;;;30.00;68.70;;;;;;5053042;28;20028;-58
2023/09/10 12:26:11;;;;;;;9.57;4.93;;;30.00;68.50;;;;;;5053227;28;20023;-59
2023/09/10 12:28:37;;;;;;;4.82;3.90;;;30.10;67.90;;;;;;5053072;28;20051;-58
2023/09/10 12:31:03;;;;;;;7.47;4.53;;;30.10;67.60;;;;;;5053189;28;20024;-55
2023/09/10 12:33:30;;;;;;;5.28;4.20;;;30.10;67.80;;;;;;5054404;28;21801;-60
2023/09/10 12:35:56;;;;;;;7.47;4.03;;;30.20;67.70;;;;;;5053798;28;20025;-59
2023/09/10 12:38:22;;;;;;;6.55;4.82;;;30.30;67.80;;;;;;5053564;28;20025;-59